createdAt,value
2023-03-28T00:02:08.113Z,93957.41
2023-03-28T00:04:34.769Z,93926.13
2023-03-28T00:07:01.433Z,93953.31
2023-03-28T00:09:28.081Z,93945.91
2023-03-28T00:11:54.704Z,93963.28
2023-03-28T00:14:21.545Z,93972.72
2023-03-28T00:16:48.239Z,93985.91
2023-03-28T00:19:17.798Z,93973.00
2023-03-28T00:21:47.515Z,94012.31
2023-03-28T00:24:16.855Z,94016.25
2023-03-28T00:26:45.183Z,94029.72
2023-03-28T00:29:16.738Z,94033.69
2023-03-28T00:31:43.434Z,94042.78
2023-03-28T00:34:10.058Z,94049.00
2023-03-28T00:36:39.019Z,94060.22
2023-03-28T00:39:07.012Z,94023.06
2023-03-28T00:41:40.270Z,94051.00
2023-03-28T00:44:41.106Z,94074.59
2023-03-28T00:47:30.852Z,94036.44
2023-03-28T00:50:07.226Z,94032.59
2023-03-28T00:52:42.882Z,94054.22
2023-03-28T00:55:15.564Z,94034.03
2023-03-28T00:57:44.650Z,94053.13
2023-03-28T01:00:12.545Z,94066.78
2023-03-28T01:02:51.100Z,94058.31
2023-03-28T01:05:22.558Z,94067.13
2023-03-28T01:07:53.987Z,94085.56
2023-03-28T01:10:22.567Z,94087.84
2023-03-28T01:12:51.274Z,94088.16
2023-03-28T01:15:18.028Z,94072.41
2023-03-28T01:17:46.562Z,94106.44
2023-03-28T01:20:16.283Z,94109.84
2023-03-28T01:22:57.189Z,94101.16
2023-03-28T01:25:43.066Z,94110.75
2023-03-28T01:28:34.101Z,94128.53
2023-03-28T01:31:19.514Z,94119.97
2023-03-28T01:34:17.531Z,94120.88
2023-03-28T01:36:47.164Z,94084.28
2023-03-28T01:39:29.764Z,94127.16
2023-03-28T01:42:20.031Z,94127.59
2023-03-28T01:45:28.533Z,94129.44
2023-03-28T01:48:13.961Z,94113.72
2023-03-28T01:50:49.798Z,94124.22
2023-03-28T01:53:28.649Z,94109.03
2023-03-28T01:56:14.268Z,94120.34
2023-03-28T01:58:50.194Z,94129.09
2023-03-28T02:01:24.921Z,94151.72
2023-03-28T02:03:56.359Z,94141.75
2023-03-28T02:06:24.403Z,94157.88
2023-03-28T02:08:54.985Z,94161.72
2023-03-28T02:11:21.940Z,94168.59
2023-03-28T02:13:57.898Z,94155.75
2023-03-28T02:16:25.863Z,94167.59
2023-03-28T02:18:57.996Z,94151.91
2023-03-28T02:21:45.636Z,94158.72
2023-03-28T02:24:12.773Z,94166.63
2023-03-28T02:26:39.896Z,94169.44
2023-03-28T02:29:09.008Z,94169.91
2023-03-28T02:31:37.297Z,94166.44
2023-03-28T02:34:03.999Z,94158.25
2023-03-28T02:36:46.175Z,94155.69
2023-03-28T02:39:36.919Z,94184.03
2023-03-28T02:42:40.633Z,94191.72
2023-03-28T02:45:18.204Z,94171.38
2023-03-28T02:47:53.807Z,94182.16
2023-03-28T02:50:25.898Z,94161.53
2023-03-28T02:53:14.362Z,94181.75
2023-03-28T02:55:57.115Z,94183.53
2023-03-28T02:58:34.199Z,94192.53
2023-03-28T03:01:03.581Z,94188.63
2023-03-28T03:05:58.243Z,94201.91
2023-03-28T03:08:25.255Z,94192.59
2023-03-28T03:10:51.921Z,94203.13
2023-03-28T03:13:18.428Z,94198.38
2023-03-28T03:15:46.300Z,94205.38
2023-03-28T03:18:13.236Z,94210.69
2023-03-28T03:20:41.227Z,94199.19
2023-03-28T03:23:08.260Z,94220.78
2023-03-28T03:25:35.351Z,94206.47
2023-03-28T03:28:01.957Z,94224.91
2023-03-28T03:30:28.632Z,94219.63
2023-03-28T03:32:56.086Z,94210.25
2023-03-28T03:35:23.020Z,94216.31
2023-03-28T03:37:49.704Z,94236.63
2023-03-28T03:40:18.255Z,94204.53
2023-03-28T03:42:44.903Z,94224.81
2023-03-28T03:45:11.785Z,94191.22
2023-03-28T03:47:38.522Z,94217.38
2023-03-28T03:50:05.705Z,94200.09
2023-03-28T03:52:32.425Z,94235.38
2023-03-28T03:54:59.082Z,94229.75
2023-03-28T03:57:26.352Z,94238.91
2023-03-28T03:59:53.296Z,94237.47
2023-03-28T04:02:20.303Z,94252.78
2023-03-28T04:04:47.817Z,94259.19
2023-03-28T04:07:15.417Z,94252.03
2023-03-28T04:09:42.103Z,94279.63
2023-03-28T04:12:10.514Z,94267.00
2023-03-28T04:14:37.250Z,94263.16
2023-03-28T04:17:04.660Z,94267.00
2023-03-28T04:19:31.325Z,94259.66
2023-03-28T04:21:59.361Z,94246.53
2023-03-28T04:24:25.995Z,94280.09
2023-03-28T04:26:56.161Z,94282.06
2023-03-28T04:29:30.782Z,94293.41
2023-03-28T04:31:58.901Z,94236.47
2023-03-28T04:34:30.113Z,94296.22
2023-03-28T04:37:02.011Z,94297.91
2023-03-28T04:39:33.968Z,94294.94
2023-03-28T04:42:02.034Z,94338.47
2023-03-28T04:44:29.947Z,94326.75
2023-03-28T04:46:58.348Z,94328.72
2023-03-28T04:49:25.644Z,94324.25
2023-03-28T04:51:52.776Z,94350.28
2023-03-28T04:54:19.934Z,94337.53
2023-03-28T04:56:50.954Z,94337.94
2023-03-28T04:59:18.301Z,94329.34
2023-03-28T05:01:49.465Z,94356.63
2023-03-28T05:04:22.044Z,94373.66
2023-03-28T05:06:50.348Z,94287.03
2023-03-28T05:09:17.787Z,94363.69
2023-03-28T05:11:46.467Z,94334.84
2023-03-28T05:14:13.205Z,94359.06
2023-03-28T05:16:40.032Z,94350.06
2023-03-28T05:19:07.207Z,94355.72
2023-03-28T05:21:33.957Z,94349.38
2023-03-28T05:24:00.873Z,94377.25
2023-03-28T05:26:28.205Z,94374.56
2023-03-28T05:28:56.774Z,94352.41
2023-03-28T05:31:26.163Z,94353.47
2023-03-28T05:33:52.886Z,94378.41
2023-03-28T05:36:19.627Z,94342.38
2023-03-28T05:38:46.701Z,94399.19
2023-03-28T05:41:14.330Z,94365.47
2023-03-28T05:43:41.334Z,94364.28
2023-03-28T05:46:08.268Z,94387.28
2023-03-28T05:48:35.232Z,94400.00
2023-03-28T05:51:02.175Z,94356.66
2023-03-28T05:53:28.973Z,94381.28
2023-03-28T05:55:55.756Z,94387.94
2023-03-28T05:58:22.397Z,94383.94
2023-03-28T06:00:49.128Z,94405.34
2023-03-28T06:03:17.320Z,94418.09
2023-03-28T06:05:44.812Z,94424.19
2023-03-28T06:08:11.956Z,94421.00
2023-03-28T06:10:38.956Z,94431.56
2023-03-28T06:13:05.715Z,94423.41
2023-03-28T06:15:33.129Z,94426.41
2023-03-28T06:18:00.105Z,94451.13
2023-03-28T06:20:26.954Z,94455.72
2023-03-28T06:22:53.612Z,94442.28
2023-03-28T06:25:20.331Z,94465.06
2023-03-28T06:27:47.075Z,94436.38
2023-03-28T06:30:14.351Z,94420.66
2023-03-28T06:32:41.305Z,94479.75
2023-03-28T06:35:08.901Z,94456.44
2023-03-28T06:37:36.021Z,94435.44
2023-03-28T06:40:03.601Z,94462.22
2023-03-28T06:42:30.567Z,94436.88
2023-03-28T06:44:57.220Z,94427.88
2023-03-28T06:47:24.043Z,94464.81
2023-03-28T06:49:50.765Z,94457.75
2023-03-28T06:52:17.455Z,94454.94
2023-03-28T06:54:45.315Z,94453.31
2023-03-28T06:57:13.191Z,94425.22
2023-03-28T06:59:39.858Z,94459.22
2023-03-28T07:02:06.937Z,94436.47
2023-03-28T07:04:34.991Z,94446.03
2023-03-28T07:07:01.892Z,94476.03
2023-03-28T07:09:28.525Z,94458.78
2023-03-28T07:11:55.264Z,94459.88
2023-03-28T07:14:21.922Z,94494.91
2023-03-28T07:16:48.557Z,94492.81
2023-03-28T07:19:15.374Z,94508.28
2023-03-28T07:21:42.103Z,94528.81
2023-03-28T07:24:08.927Z,94427.09
2023-03-28T07:26:35.585Z,94509.31
2023-03-28T07:29:02.279Z,94484.91
2023-03-28T07:31:29.067Z,94515.56
2023-03-28T07:33:58.947Z,94528.75
2023-03-28T07:36:28.167Z,94527.00
2023-03-28T07:38:55.331Z,94512.72
2023-03-28T07:41:24.817Z,94497.47
2023-03-28T07:43:51.571Z,94510.50
2023-03-28T07:46:20.951Z,94540.81
2023-03-28T07:48:47.792Z,94487.19
2023-03-28T07:51:14.683Z,94538.03
2023-03-28T07:53:41.488Z,94549.16
2023-03-28T07:56:12.741Z,94550.19
2023-03-28T07:58:40.964Z,94513.63
2023-03-28T08:01:10.011Z,94561.78
2023-03-28T08:03:37.005Z,94561.78
2023-03-28T08:06:13.478Z,94561.19
2023-03-28T08:08:47.161Z,94539.97
2023-03-28T08:11:13.910Z,94557.06
2023-03-28T08:13:40.577Z,94555.47
2023-03-28T08:16:08.010Z,94575.66
2023-03-28T08:18:34.654Z,94561.38
2023-03-28T08:21:03.830Z,94596.63
2023-03-28T08:23:30.880Z,94589.34
2023-03-28T08:26:05.206Z,94560.31
2023-03-28T08:28:36.490Z,94564.22
2023-03-28T08:31:10.836Z,94604.94
2023-03-28T08:33:37.892Z,94553.81
2023-03-28T08:36:04.751Z,94583.47
2023-03-28T08:38:31.611Z,94587.69
2023-03-28T08:41:19.329Z,94576.75
2023-03-28T08:44:04.247Z,94602.81
2023-03-28T08:46:33.576Z,94608.00
2023-03-28T08:49:07.644Z,94596.56
2023-03-28T08:51:41.155Z,94585.22
2023-03-28T08:54:13.994Z,94600.63
2023-03-28T08:56:45.781Z,94627.06
2023-03-28T08:59:16.692Z,94630.97
2023-03-28T09:01:44.819Z,94579.41
2023-03-28T09:04:35.403Z,94623.31
2023-03-28T09:07:35.891Z,94618.41
2023-03-28T09:10:40.619Z,94618.69
2023-03-28T09:13:19.670Z,94625.34
2023-03-28T09:15:59.909Z,94618.94
2023-03-28T09:18:44.783Z,94609.44
2023-03-28T09:21:25.964Z,94604.34
2023-03-28T09:24:16.801Z,94617.44
2023-03-28T09:27:02.609Z,94635.88
2023-03-28T09:29:32.799Z,94631.78
2023-03-28T09:32:08.170Z,94637.13
2023-03-28T09:34:47.414Z,94627.16
2023-03-28T09:37:29.337Z,94638.88
2023-03-28T09:40:00.459Z,94634.97
2023-03-28T09:42:31.516Z,94631.28
2023-03-28T09:45:16.652Z,94626.91
2023-03-28T09:47:57.257Z,94632.78
2023-03-28T09:50:24.135Z,94631.81
2023-03-28T09:52:53.594Z,94643.41
2023-03-28T09:55:27.185Z,94633.72
2023-03-28T09:58:10.098Z,94646.59
2023-03-28T10:00:40.830Z,94636.28
2023-03-28T10:03:23.119Z,94630.19
2023-03-28T10:05:51.828Z,94632.47
2023-03-28T10:08:29.587Z,94621.38
2023-03-28T10:11:13.314Z,94645.00
2023-03-28T10:13:47.207Z,94644.84
2023-03-28T10:16:35.384Z,94627.00
2023-03-28T10:19:03.290Z,94641.34
2023-03-28T10:21:32.445Z,94642.44
2023-03-28T10:24:05.317Z,94647.19
2023-03-28T10:26:32.560Z,94634.81
2023-03-28T10:29:04.501Z,94635.56
2023-03-28T10:31:33.121Z,94642.91
2023-03-28T10:34:02.821Z,94666.53
2023-03-28T10:36:37.475Z,94639.34
2023-03-28T10:39:24.260Z,94660.38
2023-03-28T10:41:56.912Z,94648.97
2023-03-28T10:44:37.956Z,94641.00
2023-03-28T10:47:15.001Z,94674.50
2023-03-28T10:50:02.206Z,94674.28
2023-03-28T10:52:35.917Z,94689.09
2023-03-28T10:55:31.020Z,94668.91
2023-03-28T10:58:14.843Z,94676.44
2023-03-28T11:00:48.917Z,94659.84
2023-03-28T11:03:19.035Z,94671.06
2023-03-28T11:06:08.751Z,94688.03
2023-03-28T11:08:51.660Z,94678.06
2023-03-28T11:11:18.255Z,94679.06
2023-03-28T11:14:29.807Z,94671.50
2023-03-28T11:17:20.333Z,94677.63
2023-03-28T11:20:17.502Z,94677.88
2023-03-28T11:23:06.488Z,94674.44
2023-03-28T11:25:36.279Z,94664.78
2023-03-28T11:28:21.252Z,94675.81
2023-03-28T11:30:52.691Z,94670.59
2023-03-28T11:33:44.230Z,94663.78
2023-03-28T11:36:16.684Z,94657.66
2023-03-28T11:38:50.772Z,94672.50
2023-03-28T11:41:24.337Z,94650.63
2023-03-28T11:43:53.871Z,94666.78
2023-03-28T11:46:31.625Z,94660.41
2023-03-28T11:49:11.667Z,94636.00
2023-03-28T11:51:45.756Z,94675.25
2023-03-28T11:54:16.279Z,94669.00
2023-03-28T11:56:58.731Z,94667.53
2023-03-28T11:59:25.565Z,94661.38
2023-03-28T12:02:03.879Z,94621.25
2023-03-28T12:04:39.269Z,94652.56
2023-03-28T12:07:15.658Z,94622.59
2023-03-28T12:10:04.791Z,94625.63
2023-03-28T12:12:37.810Z,94659.13
2023-03-28T12:15:31.609Z,94678.38
2023-03-28T12:18:02.769Z,94682.16
2023-03-28T12:20:39.853Z,94652.66
2023-03-28T12:23:24.629Z,94688.16
2023-03-28T12:26:07.923Z,94658.66
2023-03-28T12:28:39.738Z,94655.97
2023-03-28T12:31:21.819Z,94680.81
2023-03-28T12:33:48.640Z,94672.72
2023-03-28T12:36:21.209Z,94674.06
2023-03-28T12:39:17.572Z,94660.78
2023-03-28T12:41:45.433Z,94644.38
2023-03-28T12:44:12.009Z,94675.91
2023-03-28T12:47:05.866Z,94679.75
2023-03-28T12:49:45.205Z,94671.38
2023-03-28T12:52:17.753Z,94683.25
2023-03-28T12:55:01.359Z,94691.94
2023-03-28T12:57:41.030Z,94703.72
2023-03-28T13:00:22.085Z,94698.47
2023-03-28T13:03:10.549Z,94702.63
2023-03-28T13:05:46.871Z,94695.63
2023-03-28T13:08:44.516Z,94706.25
2023-03-28T13:11:36.413Z,94608.38
2023-03-28T13:14:24.258Z,94706.75
2023-03-28T13:17:01.772Z,94686.19
2023-03-28T13:19:43.317Z,94691.59
2023-03-28T13:22:30.042Z,94711.97
2023-03-28T13:25:25.904Z,94708.34
2023-03-28T13:27:58.474Z,94684.78
2023-03-28T13:30:34.393Z,94707.34
2023-03-28T13:33:07.855Z,94687.28
2023-03-28T13:35:48.908Z,94711.78
2023-03-28T13:38:27.825Z,94706.34
2023-03-28T13:40:59.566Z,94697.88
2023-03-28T13:43:47.239Z,94721.72
2023-03-28T13:46:19.077Z,94712.16
2023-03-28T13:48:55.285Z,94702.22
2023-03-28T13:51:29.981Z,94704.38
2023-03-28T13:53:56.790Z,94690.44
2023-03-28T13:56:27.966Z,94702.25
2023-03-28T13:58:57.220Z,94720.97
2023-03-28T14:01:26.993Z,94693.25
2023-03-28T14:03:55.365Z,94719.28
2023-03-28T14:06:27.794Z,94713.56
2023-03-28T14:08:57.812Z,94711.72
2023-03-28T14:11:31.832Z,94723.13
2023-03-28T14:14:09.857Z,94663.41
2023-03-28T14:16:37.699Z,94730.28
2023-03-28T14:19:05.960Z,94721.19
2023-03-28T14:21:33.491Z,94732.63
2023-03-28T14:24:04.210Z,94718.84
2023-03-28T14:26:34.495Z,94719.03
2023-03-28T14:29:05.329Z,94732.44
2023-03-28T14:31:40.834Z,94717.19
2023-03-28T14:34:21.528Z,94683.22
2023-03-28T14:37:18.579Z,94675.59
2023-03-28T14:39:45.970Z,94731.34
2023-03-28T14:42:18.496Z,94739.84
2023-03-28T14:44:49.351Z,94743.13
2023-03-28T14:47:33.350Z,94754.00
2023-03-28T14:50:01.555Z,94751.25
2023-03-28T14:52:31.573Z,94744.03
2023-03-28T14:54:58.890Z,94728.94
2023-03-28T14:57:26.592Z,94754.34
2023-03-28T14:59:56.095Z,94770.03
2023-03-28T15:02:35.392Z,94772.72
2023-03-28T15:05:09.751Z,94760.25
2023-03-28T15:07:37.484Z,94748.19
2023-03-28T15:10:23.357Z,94694.47
2023-03-28T15:13:20.305Z,94788.13
2023-03-28T15:15:48.872Z,94767.34
2023-03-28T15:18:19.743Z,94763.13
2023-03-28T15:20:52.215Z,94769.34
2023-03-28T15:23:32.168Z,94790.22
2023-03-28T15:26:03.992Z,94782.16
2023-03-28T15:28:31.584Z,94781.81
2023-03-28T15:31:00.872Z,94780.38
2023-03-28T15:33:33.645Z,94781.38
2023-03-28T15:36:07.532Z,94807.66
2023-03-28T15:38:39.552Z,94799.72
2023-03-28T15:41:31.827Z,94803.84
2023-03-28T15:44:10.122Z,94827.41
2023-03-28T15:46:37.227Z,94832.13
2023-03-28T15:49:06.999Z,94830.03
2023-03-28T15:51:47.728Z,94835.53
2023-03-28T15:54:27.922Z,94847.53
2023-03-28T15:57:00.707Z,94856.97
2023-03-28T15:59:36.187Z,94864.56
2023-03-28T16:02:24.474Z,94855.72
2023-03-28T16:05:09.050Z,94859.53
2023-03-28T16:07:47.612Z,94871.06
2023-03-28T16:10:22.424Z,94881.13
2023-03-28T16:12:51.186Z,94877.59
2023-03-28T16:15:19.258Z,94876.09
2023-03-28T16:17:47.388Z,94882.72
2023-03-28T16:20:25.461Z,94898.19
2023-03-28T16:22:52.503Z,94895.91
2023-03-28T16:25:19.513Z,94906.66
2023-03-28T16:27:46.244Z,94897.91
2023-03-28T16:30:25.275Z,94907.91
2023-03-28T16:32:51.990Z,94920.91
2023-03-28T16:35:18.688Z,94914.38
2023-03-28T16:37:45.473Z,94932.34
2023-03-28T16:40:12.425Z,94949.31
2023-03-28T16:42:39.132Z,94923.59
2023-03-28T16:45:07.173Z,94936.72
2023-03-28T16:47:33.833Z,94947.50
2023-03-28T16:50:00.514Z,94947.25
2023-03-28T16:52:29.220Z,94941.38
2023-03-28T16:54:56.768Z,94970.22
2023-03-28T16:57:23.392Z,94966.03
2023-03-28T16:59:50.137Z,94969.06
2023-03-28T17:02:17.344Z,94958.59
2023-03-28T17:04:49.390Z,94957.47
2023-03-28T17:07:15.989Z,94979.72
2023-03-28T17:09:43.184Z,94965.19
2023-03-28T17:12:09.914Z,94983.25
2023-03-28T17:14:36.753Z,94985.56
2023-03-28T17:17:03.503Z,94969.91
2023-03-28T17:19:30.257Z,94949.75
2023-03-28T17:21:56.867Z,94980.22
2023-03-28T17:24:24.000Z,94974.50
2023-03-28T17:26:50.895Z,94987.16
2023-03-28T17:29:17.554Z,94985.66
2023-03-28T17:31:44.508Z,94984.13
2023-03-28T17:34:12.779Z,94994.13
2023-03-28T17:36:41.351Z,95002.19
2023-03-28T17:39:13.216Z,95012.19
2023-03-28T17:41:39.954Z,95030.97
2023-03-28T17:44:07.128Z,95033.66
2023-03-28T17:46:33.884Z,95043.66
2023-03-28T17:49:00.661Z,95034.53
2023-03-28T17:51:28.459Z,95059.41
2023-03-28T17:53:55.449Z,95057.19
2023-03-28T17:56:22.254Z,95074.78
2023-03-28T17:58:48.939Z,95068.66
2023-03-28T18:01:18.524Z,95075.16
2023-03-28T18:03:46.259Z,95080.59
2023-03-28T18:06:13.475Z,95088.25
2023-03-28T18:08:40.616Z,95102.03
2023-03-28T18:11:09.966Z,95089.81
2023-03-28T18:13:38.315Z,95093.66
2023-03-28T18:16:09.365Z,95105.53
2023-03-28T18:18:36.476Z,95096.03
2023-03-28T18:21:04.338Z,95116.28
2023-03-28T18:23:31.954Z,95114.75
2023-03-28T18:25:59.104Z,95118.59
2023-03-28T18:28:26.620Z,95115.13
2023-03-28T18:30:54.262Z,95118.22
2023-03-28T18:33:24.839Z,95107.50
2023-03-28T18:35:51.757Z,95116.31
2023-03-28T18:38:18.998Z,95117.88
2023-03-28T18:40:52.516Z,95136.25
2023-03-28T18:43:19.259Z,95132.06
2023-03-28T18:45:54.188Z,95153.47
2023-03-28T18:48:21.978Z,95147.00
2023-03-28T18:50:48.660Z,95119.88
2023-03-28T18:53:15.456Z,95159.59
2023-03-28T18:55:42.663Z,95164.22
2023-03-28T18:58:11.645Z,95146.25
2023-03-28T19:00:38.956Z,95173.78
2023-03-28T19:03:09.412Z,95182.59
2023-03-28T19:05:37.245Z,95180.28
2023-03-28T19:08:04.543Z,95186.81
2023-03-28T19:10:31.607Z,95193.69
2023-03-28T19:12:58.612Z,95184.13
2023-03-28T19:15:25.806Z,95192.16
2023-03-28T19:17:52.654Z,95182.97
2023-03-28T19:20:19.618Z,95195.25
2023-03-28T19:22:46.793Z,95170.00
2023-03-28T19:25:14.412Z,95194.09
2023-03-28T19:27:41.958Z,95142.84
2023-03-28T19:30:09.859Z,95179.94
2023-03-28T19:32:36.593Z,95176.13
2023-03-28T19:35:03.411Z,95203.63
2023-03-28T19:37:30.238Z,95193.72
2023-03-28T19:39:59.240Z,95198.69
2023-03-28T19:42:26.352Z,95196.38
2023-03-28T19:44:53.526Z,95198.69
2023-03-28T19:47:20.230Z,95189.50
2023-03-28T19:49:47.263Z,95212.06
2023-03-28T19:52:14.054Z,95190.28
2023-03-28T19:54:41.212Z,95202.13
2023-03-28T19:57:08.518Z,95194.84
2023-03-28T19:59:35.702Z,95215.13
2023-03-28T20:02:02.394Z,95229.69
2023-03-28T20:04:29.262Z,95219.34
2023-03-28T20:06:55.949Z,95231.97
2023-03-28T20:09:24.314Z,95230.06
2023-03-28T20:11:51.153Z,95231.59
2023-03-28T20:14:20.218Z,95230.03
2023-03-28T20:16:48.024Z,95173.06
2023-03-28T20:19:14.696Z,95249.56
2023-03-28T20:21:41.408Z,95235.78
2023-03-28T20:24:08.574Z,95210.16
2023-03-28T20:26:35.486Z,95259.13
2023-03-28T20:29:02.103Z,95196.38
2023-03-28T20:31:29.117Z,95253.41
2023-03-28T20:33:56.678Z,95264.47
2023-03-28T20:36:23.719Z,95254.94
2023-03-28T20:38:50.879Z,95256.06
2023-03-28T20:41:18.768Z,95280.53
2023-03-28T20:43:50.121Z,95252.59
2023-03-28T20:46:21.233Z,95271.78
2023-03-28T20:48:52.565Z,95287.84
2023-03-28T20:51:22.616Z,95240.38
2023-03-28T20:53:54.471Z,95284.00
2023-03-28T20:56:21.955Z,95272.13
2023-03-28T20:58:50.975Z,95277.13
2023-03-28T21:01:18.505Z,95285.53
2023-03-28T21:03:52.035Z,95252.25
2023-03-28T21:06:31.373Z,95277.91
2023-03-28T21:09:00.520Z,95266.38
2023-03-28T21:11:29.937Z,95240.38
2023-03-28T21:13:57.891Z,95250.34
2023-03-28T21:16:26.126Z,95283.59
2023-03-28T21:18:52.834Z,95267.53
2023-03-28T21:21:21.177Z,95278.63
2023-03-28T21:23:48.695Z,95268.31
2023-03-28T21:26:21.291Z,95285.53
2023-03-28T21:28:48.988Z,95287.06
2023-03-28T21:31:20.941Z,95283.22
2023-03-28T21:33:49.037Z,95235.41
2023-03-28T21:36:17.693Z,95288.22
2023-03-28T21:38:44.902Z,95272.50
2023-03-28T21:41:12.179Z,95267.94
2023-03-28T21:43:39.337Z,95295.09
2023-03-28T21:46:07.730Z,95298.16
2023-03-28T21:48:35.200Z,95260.28
2023-03-28T21:51:03.266Z,95225.84
2023-03-28T21:53:32.537Z,95279.41
2023-03-28T21:55:59.665Z,95293.94
2023-03-28T21:58:29.360Z,95293.19
2023-03-28T22:00:56.313Z,95272.91
2023-03-28T22:03:23.728Z,95298.53
2023-03-28T22:05:52.086Z,95292.81
2023-03-28T22:08:19.343Z,95268.31
2023-03-28T22:10:52.608Z,95291.66
2023-03-28T22:13:20.225Z,95308.13
2023-03-28T22:15:46.906Z,95282.84
2023-03-28T22:18:13.689Z,95316.91
2023-03-28T22:20:42.433Z,95324.16
2023-03-28T22:23:09.929Z,95316.13
2023-03-28T22:25:38.446Z,95320.34
2023-03-28T22:28:07.812Z,95313.06
2023-03-28T22:30:35.916Z,95306.91
2023-03-28T22:33:04.018Z,95315.72
2023-03-28T22:35:32.445Z,95311.91
2023-03-28T22:38:00.212Z,95293.13
2023-03-28T22:40:27.027Z,95312.63
2023-03-28T22:42:57.014Z,95311.09
2023-03-28T22:45:26.543Z,95311.09
2023-03-28T22:47:53.782Z,95295.75
2023-03-28T22:50:22.637Z,95269.34
2023-03-28T22:52:53.005Z,95303.00
2023-03-28T22:55:22.861Z,95321.38
2023-03-28T22:57:51.695Z,95309.84
2023-03-28T23:00:22.945Z,95317.91
2023-03-28T23:02:51.830Z,95327.03
2023-03-28T23:05:19.437Z,95325.94
2023-03-28T23:07:46.161Z,95311.00
2023-03-28T23:10:16.485Z,95202.59
2023-03-28T23:12:44.170Z,95299.09
2023-03-28T23:15:11.778Z,95315.97
2023-03-28T23:17:39.005Z,95316.69
2023-03-28T23:20:13.013Z,95313.66
2023-03-28T23:22:41.637Z,95329.72
2023-03-28T23:25:09.148Z,95329.34
2023-03-28T23:27:35.894Z,95336.59
2023-03-28T23:30:02.800Z,95325.47
2023-03-28T23:32:29.481Z,95338.47
2023-03-28T23:34:56.126Z,95279.44
2023-03-28T23:37:26.095Z,95342.28
2023-03-28T23:56:46.201Z,95346.22
2023-03-28T23:59:13.101Z,95342.72
